Vale Grand Sud — FICV — position and weather

sailwx.info

Track history (hours):
 
Tides and Currents Weather Stations Pressure Air Temp Water Temp Dewpoint Dewpoint Depression Visibility Wind Speed Wind Dir Waves Ship Positions

Vale Grand Sud

Last reported at 2018-Jun-18 13:32 UTC. Time now 2018-Jun-18 22:34 UTC.
Position S 22°16' E 166°26'.

Length 41 m; draft 2.5 m.

Type: High speed craft. MMSI: 540011300.

Date/timePositionNaut miles runAvg speedWind from/ knotsBaromVisibWave heightAir tempDewpointWater temp
2018-Jun-18 13:32S 22°16' E 166°26'0 0.0
2018-Jun-18 13:30S 22°16' E 166°26'0 0.0
2018-Jun-18 13:00S 22°16' E 166°26'0 0.0
2018-Jun-18 12:30S 22°16' E 166°26'0 0.0
2018-Jun-18 12:00S 22°16' E 166°26'0 0.0
2018-Jun-18 11:31S 22°16' E 166°26'0 0.0
2018-Jun-18 11:00S 22°16' E 166°26'3 6.6
2018-Jun-18 10:31S 22°19' E 166°27'11 4.5
2018-Jun-18 08:02S 22°23' E 166°38'132.2
2018-Jun-18 07:59S 22°23' E 166°37'1224.7
2018-Jun-18 07:30S 22°16' E 166°26'0 0.7
2018-Jun-18 07:00S 22°16' E 166°26'4 7.5
2018-Jun-18 06:30S 22°20' E 166°27'  
2018-Jun-13 18:17S 22°16' E 166°26'0 0.0
2018-Jun-13 18:00S 22°16' E 166°26'0 0.0
2018-Jun-13 17:30S 22°16' E 166°26'0 0.0
2018-Jun-13 17:01S 22°16' E 166°26'0 0.0
2018-Jun-13 16:31S 22°16' E 166°26'0 0.0
2018-Jun-13 16:01S 22°16' E 166°26'0 0.0
2018-Jun-13 15:31S 22°16' E 166°26'0 0.0
2018-Jun-13 15:00S 22°16' E 166°26'0 0.0
2018-Jun-13 14:30S 22°16' E 166°26'0 0.0
2018-Jun-13 14:01S 22°16' E 166°26'0 0.0
2018-Jun-13 13:31S 22°16' E 166°26'0 0.0
2018-Jun-13 13:01S 22°16' E 166°26'0 0.0
2018-Jun-13 12:30S 22°16' E 166°26'0 0.0
2018-Jun-13 12:01S 22°16' E 166°26'0 0.0
2018-Jun-13 11:31S 22°16' E 166°26'0 0.0
2018-Jun-13 11:00S 22°16' E 166°26'0 0.0
2018-Jun-13 10:30S 22°16' E 166°26'0 0.0
2018-Jun-13 10:00S 22°16' E 166°26'0 0.0
2018-Jun-13 09:31S 22°16' E 166°26'0 0.0
2018-Jun-13 09:00S 22°16' E 166°26'0 0.0
2018-Jun-13 08:31S 22°16' E 166°26'0 0.0
2018-Jun-13 08:00S 22°16' E 166°26'0 0.0
2018-Jun-13 07:30S 22°16' E 166°26'  
2018-Jun-09 21:52S 22°16' E 166°26'0 0.0
2018-Jun-09 21:30S 22°16' E 166°26'0 0.0
2018-Jun-09 21:01S 22°16' E 166°26'0 0.0
2018-Jun-09 20:30S 22°16' E 166°26'0 0.0
2018-Jun-09 19:57S 22°16' E 166°26'0 0.0
2018-Jun-09 19:30S 22°16' E 166°26'0 0.0
2018-Jun-09 19:00S 22°16' E 166°26'0 0.0
2018-Jun-09 18:29S 22°16' E 166°26'0 0.0
2018-Jun-09 18:00S 22°16' E 166°26'0 0.0
2018-Jun-09 17:30S 22°16' E 166°26'0 0.0
2018-Jun-09 17:00S 22°16' E 166°26'0 0.0
2018-Jun-09 16:30S 22°16' E 166°26'0 0.0
2018-Jun-09 16:00S 22°16' E 166°26'0 0.0
2018-Jun-09 15:00S 22°16' E 166°26'0 0.0
2018-Jun-09 14:31S 22°16' E 166°26'0 0.0
2018-Jun-09 14:00S 22°16' E 166°26'0 0.0
2018-Jun-09 13:30S 22°16' E 166°26'0 0.0
2018-Jun-09 13:00S 22°16' E 166°26'0 0.0
2018-Jun-09 12:30S 22°16' E 166°26'0 0.0
2018-Jun-09 11:58S 22°16' E 166°26'0 0.0
2018-Jun-09 11:30S 22°16' E 166°26'0 0.0
2018-Jun-09 11:00S 22°16' E 166°26'0 0.0
2018-Jun-09 10:30S 22°16' E 166°26'0 0.0
2018-Jun-09 10:00S 22°16' E 166°26'0 0.0
2018-Jun-09 09:30S 22°16' E 166°26'0 0.0
2018-Jun-09 09:00S 22°16' E 166°26'0 0.0
2018-Jun-09 08:30S 22°16' E 166°26'0 0.0
2018-Jun-09 08:00S 22°16' E 166°26'0 0.0
2018-Jun-09 07:30S 22°16' E 166°26'0 0.0
2018-Jun-09 07:01S 22°16' E 166°26'0 0.0
2018-Jun-09 06:30S 22°16' E 166°26'0 0.0
2018-Jun-09 06:00S 22°16' E 166°26'0 0.0
2018-Jun-09 05:30S 22°16' E 166°26'0 0.0
2018-Jun-09 05:00S 22°16' E 166°26'0 0.0
2018-Jun-09 04:30S 22°16' E 166°26'0 0.0
2018-Jun-09 04:00S 22°16' E 166°26'0 0.0
2018-Jun-09 03:30S 22°16' E 166°26'0 0.0
2018-Jun-09 03:00S 22°16' E 166°26'0 0.0
2018-Jun-09 02:29S 22°16' E 166°26'0 0.0
2018-Jun-09 02:00S 22°16' E 166°26'0 0.0
2018-Jun-09 01:30S 22°16' E 166°26'0 0.0
2018-Jun-09 01:00S 22°16' E 166°26'0 0.0
2018-Jun-09 00:31S 22°16' E 166°26'0 0.0
2018-Jun-09 00:01S 22°16' E 166°26'0 0.0
2018-Jun-08 23:30S 22°16' E 166°26'0 0.0
2018-Jun-08 23:00S 22°16' E 166°26'0 0.0
2018-Jun-08 22:30S 22°16' E 166°26'0 0.0
2018-Jun-08 22:00S 22°16' E 166°26'0 0.0
2018-Jun-08 21:30S 22°16' E 166°26'0 0.0
2018-Jun-08 21:00S 22°16' E 166°26'0 0.0
2018-Jun-08 20:30S 22°16' E 166°26'0 0.0
2018-Jun-08 20:00S 22°16' E 166°26'0 0.0
2018-Jun-08 19:30S 22°16' E 166°26'0 0.0
2018-Jun-08 19:00S 22°16' E 166°26'0 0.0
2018-Jun-08 18:30S 22°16' E 166°26'0 0.0
2018-Jun-08 18:00S 22°16' E 166°26'0 0.0
2018-Jun-08 17:30S 22°16' E 166°26'0 0.0
2018-Jun-08 17:00S 22°16' E 166°26'0 0.0
2018-Jun-08 16:30S 22°16' E 166°26'0 0.0
2018-Jun-08 16:00S 22°16' E 166°26'0 0.0
2018-Jun-08 15:30S 22°16' E 166°26'0 0.0
2018-Jun-08 15:00S 22°16' E 166°26'0 0.0
2018-Jun-08 14:30S 22°16' E 166°26'0 0.0
2018-Jun-08 14:00S 22°16' E 166°26'  
Track history (hours):
 
Tides and Currents Weather Stations Pressure Air Temp Water Temp Dewpoint Dewpoint Depression Visibility Wind Speed Wind Dir Waves Ship Positions

Vale Grand Sud

Last reported at 2018-Jun-18 13:32 UTC. Time now 2018-Jun-18 22:34 UTC.
Position S 22°16' E 166°26'.

Length 41 m; draft 2.5 m.

Type: High speed craft. MMSI: 540011300.

Date/timePositionNaut miles runAvg speedWind from/ knotsBaromVisibWave heightAir tempDewpointWater temp
2018-Jun-18 13:32S 22°16' E 166°26'0 0.0
2018-Jun-18 13:30S 22°16' E 166°26'0 0.0
2018-Jun-18 13:00S 22°16' E 166°26'0 0.0
2018-Jun-18 12:30S 22°16' E 166°26'0 0.0
2018-Jun-18 12:00S 22°16' E 166°26'0 0.0
2018-Jun-18 11:31S 22°16' E 166°26'0 0.0
2018-Jun-18 11:00S 22°16' E 166°26'3 6.6
2018-Jun-18 10:31S 22°19' E 166°27'11 4.5
2018-Jun-18 08:02S 22°23' E 166°38'132.2
2018-Jun-18 07:59S 22°23' E 166°37'1224.7
2018-Jun-18 07:30S 22°16' E 166°26'0 0.7
2018-Jun-18 07:00S 22°16' E 166°26'4 7.5
2018-Jun-18 06:30S 22°20' E 166°27'  
2018-Jun-13 18:17S 22°16' E 166°26'0 0.0
2018-Jun-13 18:00S 22°16' E 166°26'0 0.0
2018-Jun-13 17:30S 22°16' E 166°26'0 0.0
2018-Jun-13 17:01S 22°16' E 166°26'0 0.0
2018-Jun-13 16:31S 22°16' E 166°26'0 0.0
2018-Jun-13 16:01S 22°16' E 166°26'0 0.0
2018-Jun-13 15:31S 22°16' E 166°26'0 0.0
2018-Jun-13 15:00S 22°16' E 166°26'0 0.0
2018-Jun-13 14:30S 22°16' E 166°26'0 0.0
2018-Jun-13 14:01S 22°16' E 166°26'0 0.0
2018-Jun-13 13:31S 22°16' E 166°26'0 0.0
2018-Jun-13 13:01S 22°16' E 166°26'0 0.0
2018-Jun-13 12:30S 22°16' E 166°26'0 0.0
2018-Jun-13 12:01S 22°16' E 166°26'0 0.0
2018-Jun-13 11:31S 22°16' E 166°26'0 0.0
2018-Jun-13 11:00S 22°16' E 166°26'0 0.0
2018-Jun-13 10:30S 22°16' E 166°26'0 0.0
2018-Jun-13 10:00S 22°16' E 166°26'0 0.0
2018-Jun-13 09:31S 22°16' E 166°26'0 0.0
2018-Jun-13 09:00S 22°16' E 166°26'0 0.0
2018-Jun-13 08:31S 22°16' E 166°26'0 0.0
2018-Jun-13 08:00S 22°16' E 166°26'0 0.0
2018-Jun-13 07:30S 22°16' E 166°26'  
2018-Jun-09 21:52S 22°16' E 166°26'0 0.0
2018-Jun-09 21:30S 22°16' E 166°26'0 0.0
2018-Jun-09 21:01S 22°16' E 166°26'0 0.0
2018-Jun-09 20:30S 22°16' E 166°26'0 0.0
2018-Jun-09 19:57S 22°16' E 166°26'0 0.0
2018-Jun-09 19:30S 22°16' E 166°26'0 0.0
2018-Jun-09 19:00S 22°16' E 166°26'0 0.0
2018-Jun-09 18:29S 22°16' E 166°26'0 0.0
2018-Jun-09 18:00S 22°16' E 166°26'0 0.0
2018-Jun-09 17:30S 22°16' E 166°26'0 0.0
2018-Jun-09 17:00S 22°16' E 166°26'0 0.0
2018-Jun-09 16:30S 22°16' E 166°26'0 0.0
2018-Jun-09 16:00S 22°16' E 166°26'0 0.0
2018-Jun-09 15:00S 22°16' E 166°26'0 0.0
2018-Jun-09 14:31S 22°16' E 166°26'0 0.0
2018-Jun-09 14:00S 22°16' E 166°26'0 0.0
2018-Jun-09 13:30S 22°16' E 166°26'0 0.0
2018-Jun-09 13:00S 22°16' E 166°26'0 0.0
2018-Jun-09 12:30S 22°16' E 166°26'0 0.0
2018-Jun-09 11:58S 22°16' E 166°26'0 0.0
2018-Jun-09 11:30S 22°16' E 166°26'0 0.0
2018-Jun-09 11:00S 22°16' E 166°26'0 0.0
2018-Jun-09 10:30S 22°16' E 166°26'0 0.0
2018-Jun-09 10:00S 22°16' E 166°26'0 0.0
2018-Jun-09 09:30S 22°16' E 166°26'0 0.0
2018-Jun-09 09:00S 22°16' E 166°26'0 0.0
2018-Jun-09 08:30S 22°16' E 166°26'0 0.0
2018-Jun-09 08:00S 22°16' E 166°26'0 0.0
2018-Jun-09 07:30S 22°16' E 166°26'0 0.0
2018-Jun-09 07:01S 22°16' E 166°26'0 0.0
2018-Jun-09 06:30S 22°16' E 166°26'0 0.0
2018-Jun-09 06:00S 22°16' E 166°26'0 0.0
2018-Jun-09 05:30S 22°16' E 166°26'0 0.0
2018-Jun-09 05:00S 22°16' E 166°26'0 0.0
2018-Jun-09 04:30S 22°16' E 166°26'0 0.0
2018-Jun-09 04:00S 22°16' E 166°26'0 0.0
2018-Jun-09 03:30S 22°16' E 166°26'0 0.0
2018-Jun-09 03:00S 22°16' E 166°26'0 0.0
2018-Jun-09 02:29S 22°16' E 166°26'0 0.0
2018-Jun-09 02:00S 22°16' E 166°26'0 0.0
2018-Jun-09 01:30S 22°16' E 166°26'0 0.0
2018-Jun-09 01:00S 22°16' E 166°26'0 0.0
2018-Jun-09 00:31S 22°16' E 166°26'0 0.0
2018-Jun-09 00:01S 22°16' E 166°26'0 0.0
2018-Jun-08 23:30S 22°16' E 166°26'0 0.0
2018-Jun-08 23:00S 22°16' E 166°26'0 0.0
2018-Jun-08 22:30S 22°16' E 166°26'0 0.0
2018-Jun-08 22:00S 22°16' E 166°26'0 0.0
2018-Jun-08 21:30S 22°16' E 166°26'0 0.0
2018-Jun-08 21:00S 22°16' E 166°26'0 0.0
2018-Jun-08 20:30S 22°16' E 166°26'0 0.0
2018-Jun-08 20:00S 22°16' E 166°26'0 0.0
2018-Jun-08 19:30S 22°16' E 166°26'0 0.0
2018-Jun-08 19:00S 22°16' E 166°26'0 0.0
2018-Jun-08 18:30S 22°16' E 166°26'0 0.0
2018-Jun-08 18:00S 22°16' E 166°26'0 0.0
2018-Jun-08 17:30S 22°16' E 166°26'0 0.0
2018-Jun-08 17:00S 22°16' E 166°26'0 0.0
2018-Jun-08 16:30S 22°16' E 166°26'0 0.0
2018-Jun-08 16:00S 22°16' E 166°26'0 0.0
2018-Jun-08 15:30S 22°16' E 166°26'0 0.0
2018-Jun-08 15:00S 22°16' E 166°26'0 0.0
2018-Jun-08 14:30S 22°16' E 166°26'0 0.0
2018-Jun-08 14:00S 22°16' E 166°26'  

Dump ship's entire track history